createdAt,value
2023-03-21T00:02:24.179Z,101574.94
2023-03-21T00:05:15.728Z,101571.56
2023-03-21T00:08:09.860Z,101575.78
2023-03-21T00:11:02.712Z,101573.06
2023-03-21T00:13:50.706Z,101577.47
2023-03-21T00:16:39.904Z,101575.72
2023-03-21T00:19:31.487Z,101576.63
2023-03-21T00:22:17.484Z,101588.06
2023-03-21T00:25:03.869Z,101578.34
2023-03-21T00:28:07.185Z,101581.94
2023-03-21T00:30:57.851Z,101583.66
2023-03-21T00:33:43.855Z,101581.94
2023-03-21T00:36:30.349Z,101582.16
2023-03-21T00:39:17.954Z,101577.72
2023-03-21T00:42:03.943Z,101585.75
2023-03-21T00:44:51.213Z,101580.25
2023-03-21T00:47:37.659Z,101582.88
2023-03-21T00:50:25.690Z,101578.56
2023-03-21T00:53:12.123Z,101573.91
2023-03-21T00:55:57.961Z,101579.28
2023-03-21T00:58:43.862Z,101579.09
2023-03-21T01:01:32.263Z,101572.00
2023-03-21T01:04:18.576Z,101573.78
2023-03-21T01:07:04.360Z,101574.53
2023-03-21T01:09:50.872Z,101569.22
2023-03-21T01:12:37.917Z,101569.97
2023-03-21T01:15:23.830Z,101569.97
2023-03-21T01:18:11.036Z,101572.38
2023-03-21T01:20:57.419Z,101576.81
2023-03-21T01:23:44.047Z,101572.38
2023-03-21T01:26:29.871Z,101568.78
2023-03-21T01:29:16.246Z,101562.53
2023-03-21T01:32:02.345Z,101566.84
2023-03-21T01:34:49.983Z,101569.50
2023-03-21T01:37:36.646Z,101562.41
2023-03-21T01:40:23.059Z,101560.59
2023-03-21T01:43:16.982Z,101555.31
2023-03-21T01:46:22.106Z,101554.47
2023-03-21T01:49:26.204Z,101564.81
2023-03-21T01:52:35.947Z,101559.41
2023-03-21T01:55:25.318Z,101558.56
2023-03-21T01:58:39.414Z,101561.13
2023-03-21T02:01:42.238Z,101552.25
2023-03-21T02:04:30.251Z,101559.22
2023-03-21T02:07:37.155Z,101552.34
2023-03-21T02:10:24.673Z,101557.53
2023-03-21T02:13:13.646Z,101545.16
2023-03-21T02:16:02.226Z,101545.03
2023-03-21T02:18:55.551Z,101541.41
2023-03-21T02:21:55.191Z,101541.31
2023-03-21T02:24:59.559Z,101539.50
2023-03-21T02:27:49.623Z,101533.25
2023-03-21T02:30:52.026Z,101530.59
2023-03-21T02:33:43.205Z,101523.63
2023-03-21T02:36:31.902Z,101518.31
2023-03-21T02:39:23.340Z,101522.53
2023-03-21T02:42:10.103Z,101516.41
2023-03-21T02:44:58.697Z,101518.09
2023-03-21T02:47:45.594Z,101511.84
2023-03-21T02:50:33.189Z,101513.63
2023-03-21T02:53:21.003Z,101516.16
2023-03-21T02:56:10.610Z,101511.13
2023-03-21T02:59:01.566Z,101511.72
2023-03-21T03:01:47.639Z,101504.75
2023-03-21T03:04:34.280Z,101513.53
2023-03-21T03:07:25.195Z,101501.97
2023-03-21T03:10:18.246Z,101505.34
2023-03-21T03:13:08.004Z,101504.28
2023-03-21T03:15:57.261Z,101491.16
2023-03-21T03:18:47.472Z,101499.84
2023-03-21T03:21:33.822Z,101502.38
2023-03-21T03:24:21.352Z,101498.78
2023-03-21T03:27:09.042Z,101491.56
2023-03-21T03:29:56.908Z,101488.91
2023-03-21T03:32:47.373Z,101486.25
2023-03-21T03:35:33.538Z,101493.25
2023-03-21T03:38:20.095Z,101489.03
2023-03-21T03:41:10.396Z,101500.47
2023-03-21T03:44:02.613Z,101489.75
2023-03-21T03:46:54.892Z,101500.34
2023-03-21T03:49:42.736Z,101485.41
2023-03-21T03:52:29.670Z,101484.56
2023-03-21T03:55:22.513Z,101490.84
2023-03-21T03:58:21.746Z,101494.31
2023-03-21T04:01:11.563Z,101494.31
2023-03-21T04:04:12.150Z,101492.63
2023-03-21T04:06:59.761Z,101490.94
2023-03-21T04:09:45.819Z,101491.78
2023-03-21T04:12:35.452Z,101496.00
2023-03-21T04:15:40.632Z,101497.69
2023-03-21T04:18:33.179Z,101497.69
2023-03-21T04:21:21.912Z,101498.66
2023-03-21T04:24:08.323Z,101500.22
2023-03-21T04:26:54.890Z,101499.63
2023-03-21T04:29:56.156Z,101504.66
2023-03-21T04:32:56.905Z,101507.31
2023-03-21T04:35:45.944Z,101508.28
2023-03-21T04:38:34.323Z,101509.97
2023-03-21T04:41:22.715Z,101505.63
2023-03-21T04:44:09.845Z,101513.47
2023-03-21T04:46:56.518Z,101506.22
2023-03-21T04:49:42.385Z,101503.72
2023-03-21T04:52:30.149Z,101503.59
2023-03-21T04:55:17.524Z,101502.50
2023-03-21T04:58:05.541Z,101503.22
2023-03-21T05:00:52.954Z,101497.81
2023-03-21T05:03:40.363Z,101493.38
2023-03-21T05:06:27.769Z,101493.38
2023-03-21T05:09:14.022Z,101495.06
2023-03-21T05:12:01.355Z,101489.53
2023-03-21T05:14:49.529Z,101493.88
2023-03-21T05:17:35.457Z,101492.06
2023-03-21T05:20:22.094Z,101494.72
2023-03-21T05:23:10.705Z,101487.63
2023-03-21T05:25:56.926Z,101494.59
2023-03-21T05:29:00.440Z,101482.31
2023-03-21T05:31:46.426Z,101491.84
2023-03-21T05:34:34.660Z,101484.66
2023-03-21T05:37:21.252Z,101487.38
2023-03-21T05:40:10.471Z,101483.78
2023-03-21T05:43:00.608Z,101480.91
2023-03-21T05:45:48.898Z,101483.31
2023-03-21T05:48:36.678Z,101478.16
2023-03-21T05:51:31.888Z,101480.66
2023-03-21T05:54:18.087Z,101479.72
2023-03-21T05:57:06.965Z,101477.06
2023-03-21T06:00:16.832Z,101481.41
2023-03-21T06:03:04.145Z,101476.09
2023-03-21T06:06:00.267Z,101482.88
2023-03-21T06:08:52.963Z,101482.75
2023-03-21T06:11:39.238Z,101474.69
2023-03-21T06:14:51.497Z,101470.09
2023-03-21T06:17:42.225Z,101469.25
2023-03-21T06:20:32.181Z,101469.84
2023-03-21T06:23:26.125Z,101466.25
2023-03-21T06:26:12.948Z,101468.78
2023-03-21T06:28:58.938Z,101472.13
2023-03-21T06:31:45.349Z,101472.00
2023-03-21T06:34:31.576Z,101465.53
2023-03-21T06:37:19.173Z,101464.56
2023-03-21T06:40:07.970Z,101463.59
2023-03-21T06:42:54.288Z,101469.63
2023-03-21T06:45:40.459Z,101465.03
2023-03-21T06:48:30.247Z,101458.91
2023-03-21T06:51:17.632Z,101450.59
2023-03-21T06:54:19.835Z,101450.34
2023-03-21T06:57:28.253Z,101445.75
2023-03-21T07:00:15.042Z,101446.25
2023-03-21T07:03:05.389Z,101447.81
2023-03-21T07:05:51.551Z,101444.31
2023-03-21T07:08:37.515Z,101443.81
2023-03-21T07:11:25.839Z,101444.28
2023-03-21T07:14:12.083Z,101427.19
2023-03-21T07:16:57.831Z,101412.72
2023-03-21T07:19:44.945Z,101407.63
2023-03-21T07:22:31.051Z,101406.16
2023-03-21T07:25:17.620Z,101400.34
2023-03-21T07:28:08.977Z,101396.25
2023-03-21T07:30:56.230Z,101384.28
2023-03-21T07:33:42.346Z,101380.13
2023-03-21T07:36:29.229Z,101366.25
2023-03-21T07:39:15.522Z,101360.16
2023-03-21T07:42:01.968Z,101347.34
2023-03-21T07:44:58.312Z,101330.91
2023-03-21T07:47:44.439Z,101321.44
2023-03-21T07:50:30.501Z,101305.94
2023-03-21T07:53:16.651Z,101292.16
2023-03-21T07:56:02.377Z,101282.97
2023-03-21T07:58:48.218Z,101268.16
2023-03-21T08:01:35.369Z,101265.41
2023-03-21T08:04:22.620Z,101259.69
2023-03-21T08:07:08.505Z,101239.69
2023-03-21T08:09:54.907Z,101230.75
2023-03-21T08:12:40.982Z,101221.44
2023-03-21T08:15:27.061Z,101207.75
2023-03-21T08:18:14.393Z,101195.31
2023-03-21T08:21:00.401Z,101181.06
2023-03-21T08:23:46.565Z,101164.84
2023-03-21T08:26:32.568Z,101160.94
2023-03-21T08:29:18.413Z,101155.47
2023-03-21T08:32:04.400Z,101156.16
2023-03-21T08:34:52.331Z,101148.06
2023-03-21T08:37:38.137Z,101142.22
2023-03-21T08:40:24.120Z,101131.56
2023-03-21T08:43:10.203Z,101122.06
2023-03-21T08:45:56.379Z,101110.31
2023-03-21T08:48:42.707Z,101106.81
2023-03-21T08:51:29.877Z,101092.97
2023-03-21T08:54:22.699Z,101090.88
2023-03-21T08:57:10.942Z,101085.94
2023-03-21T08:59:56.950Z,101086.22
2023-03-21T09:02:43.025Z,101075.41
2023-03-21T09:05:29.152Z,101068.13
2023-03-21T09:08:16.237Z,101060.97
2023-03-21T09:11:02.445Z,101052.94
2023-03-21T09:13:48.388Z,101042.81
2023-03-21T09:16:34.615Z,101027.81
2023-03-21T09:19:20.661Z,101018.59
2023-03-21T09:22:11.121Z,101019.44
2023-03-21T09:24:59.219Z,101004.13
2023-03-21T09:27:45.577Z,100998.84
2023-03-21T09:30:31.700Z,100996.28
2023-03-21T09:33:19.173Z,101000.94
2023-03-21T09:36:09.877Z,101012.22
2023-03-21T09:38:56.922Z,101018.38
2023-03-21T09:41:55.489Z,101014.13
2023-03-21T09:44:44.970Z,101018.47
2023-03-21T09:47:34.731Z,101026.34
2023-03-21T09:50:21.932Z,101010.63
2023-03-21T09:53:09.234Z,100999.72
2023-03-21T09:55:55.334Z,100993.31
2023-03-21T09:58:43.163Z,100999.78
2023-03-21T10:01:32.928Z,100986.94
2023-03-21T10:04:20.259Z,100982.22
2023-03-21T10:07:07.887Z,100986.84
2023-03-21T10:09:53.819Z,100983.19
2023-03-21T10:12:40.222Z,100987.84
2023-03-21T10:15:27.984Z,100978.88
2023-03-21T10:18:14.872Z,100982.38
2023-03-21T10:21:00.980Z,100977.34
2023-03-21T10:23:47.305Z,100982.81
2023-03-21T10:26:33.187Z,100974.16
2023-03-21T10:29:22.407Z,100977.50
2023-03-21T10:32:10.404Z,100967.84
2023-03-21T10:37:48.132Z,100979.47
2023-03-21T10:40:35.508Z,100981.84
2023-03-21T10:43:33.151Z,100978.34
2023-03-21T10:46:21.167Z,100993.09
2023-03-21T10:49:09.320Z,100996.50
2023-03-21T10:51:56.595Z,101009.56
2023-03-21T10:54:42.702Z,101011.84
2023-03-21T10:57:28.679Z,101031.72
2023-03-21T11:00:20.950Z,101053.31
2023-03-21T11:03:07.185Z,101074.19
2023-03-21T11:05:56.103Z,101093.66
2023-03-21T11:08:42.776Z,101112.28
2023-03-21T11:11:29.386Z,101138.19
2023-03-21T11:14:25.101Z,101132.84
2023-03-21T11:17:21.464Z,101154.69
2023-03-21T11:20:10.294Z,101174.00
2023-03-21T11:22:57.850Z,101177.34
2023-03-21T11:25:43.622Z,101192.75
2023-03-21T11:28:34.137Z,101183.25
2023-03-21T11:31:19.964Z,101182.41
2023-03-21T11:34:06.692Z,101191.06
2023-03-21T11:36:52.341Z,101185.63
2023-03-21T11:39:41.141Z,101187.72
2023-03-21T11:42:28.553Z,101194.03
2023-03-21T11:45:15.255Z,101181.81
2023-03-21T11:48:01.629Z,101181.69
2023-03-21T11:50:48.433Z,101186.69
2023-03-21T11:53:38.346Z,101190.09
2023-03-21T11:56:26.564Z,101183.09
2023-03-21T11:59:15.906Z,101178.47
2023-03-21T12:02:10.269Z,101180.13
2023-03-21T12:04:56.569Z,101178.84
2023-03-21T12:07:46.851Z,101158.84
2023-03-21T12:10:34.139Z,101151.56
2023-03-21T12:13:26.672Z,101148.44
2023-03-21T12:16:16.908Z,101149.00
2023-03-21T12:19:07.681Z,101156.97
2023-03-21T12:21:55.775Z,101163.66
2023-03-21T12:24:42.657Z,101153.16
2023-03-21T12:27:31.747Z,101151.47
2023-03-21T12:30:23.627Z,101148.81
2023-03-21T12:33:14.558Z,101143.88
2023-03-21T12:36:11.039Z,101147.53
2023-03-21T12:38:59.721Z,101138.09
2023-03-21T12:41:46.560Z,101136.84
2023-03-21T12:44:33.434Z,101132.38
2023-03-21T12:47:21.190Z,101117.06
2023-03-21T12:50:09.590Z,101116.78
2023-03-21T12:52:56.800Z,101114.78
2023-03-21T12:55:42.767Z,101107.38
2023-03-21T12:58:29.244Z,101095.06
2023-03-21T13:01:16.164Z,101088.88
2023-03-21T13:04:09.399Z,101078.25
2023-03-21T13:06:55.380Z,101073.44
2023-03-21T13:09:42.191Z,101074.59
2023-03-21T13:12:45.350Z,101068.97
2023-03-21T13:15:34.078Z,101057.53
2023-03-21T13:18:23.629Z,101052.19
2023-03-21T13:21:13.750Z,101052.19
2023-03-21T13:24:02.008Z,101041.84
2023-03-21T13:26:49.811Z,101036.59
2023-03-21T13:29:36.836Z,101037.94
2023-03-21T13:32:24.690Z,101028.75
2023-03-21T13:35:14.507Z,101043.03
2023-03-21T13:38:03.209Z,101047.22
2023-03-21T13:40:50.509Z,101043.34
2023-03-21T13:43:41.182Z,101042.13
2023-03-21T13:46:53.671Z,101050.84
2023-03-21T13:49:40.318Z,101046.44
2023-03-21T13:52:27.111Z,101047.97
2023-03-21T13:55:17.564Z,101051.09
2023-03-21T13:58:11.863Z,101053.59
2023-03-21T14:01:07.791Z,101061.56
2023-03-21T14:04:01.365Z,101072.81
2023-03-21T14:06:48.983Z,101083.00
2023-03-21T14:09:36.445Z,101086.81
2023-03-21T14:12:25.267Z,101099.13
2023-03-21T14:15:17.154Z,101101.47
2023-03-21T14:18:15.879Z,101110.59
2023-03-21T14:21:23.423Z,101110.44
2023-03-21T14:24:13.369Z,101119.41
2023-03-21T14:27:01.798Z,101118.72
2023-03-21T14:29:51.280Z,101121.78
2023-03-21T14:32:37.158Z,101120.09
2023-03-21T14:35:23.422Z,101117.13
2023-03-21T14:38:09.712Z,101118.44
2023-03-21T14:40:57.149Z,101116.59
2023-03-21T14:43:43.392Z,101112.72
2023-03-21T14:46:30.854Z,101105.72
2023-03-21T14:49:22.200Z,101106.13
2023-03-21T14:52:10.239Z,101102.78
2023-03-21T14:54:56.454Z,101099.56
2023-03-21T14:57:42.207Z,101097.59
2023-03-21T15:00:28.592Z,101100.97
2023-03-21T15:03:16.150Z,101101.78
2023-03-21T15:06:02.068Z,101097.59
2023-03-21T15:08:54.971Z,101096.91
2023-03-21T15:11:41.055Z,101095.09
2023-03-21T15:14:28.583Z,101091.31
2023-03-21T15:17:14.827Z,101090.66
2023-03-21T15:20:02.004Z,101095.53
2023-03-21T15:22:48.381Z,101090.06
2023-03-21T15:25:35.323Z,101082.25
2023-03-21T15:28:21.411Z,101072.75
2023-03-21T15:31:17.885Z,101060.69
2023-03-21T15:34:04.685Z,101068.25
2023-03-21T15:36:56.644Z,101054.84
2023-03-21T15:39:42.825Z,101059.75
2023-03-21T15:42:29.813Z,101052.31
2023-03-21T15:45:16.727Z,101041.97
2023-03-21T15:48:03.680Z,101031.59
2023-03-21T15:50:57.733Z,101030.75
2023-03-21T15:53:45.799Z,101020.69
2023-03-21T15:56:34.565Z,101013.69
2023-03-21T15:59:20.520Z,101005.59
2023-03-21T16:02:07.220Z,100991.16
2023-03-21T16:04:57.275Z,100979.84
2023-03-21T16:07:45.875Z,100976.59
2023-03-21T16:10:33.626Z,100972.19
2023-03-21T16:13:19.619Z,100955.78
2023-03-21T16:16:05.794Z,100950.78
2023-03-21T16:18:52.314Z,100951.91
2023-03-21T16:21:39.120Z,100947.03
2023-03-21T16:24:25.048Z,100935.97
2023-03-21T16:27:12.245Z,100925.41
2023-03-21T16:29:58.284Z,100936.03
2023-03-21T16:32:44.187Z,100937.72
2023-03-21T16:35:30.053Z,100932.69
2023-03-21T16:38:15.990Z,100938.84
2023-03-21T16:41:04.241Z,100949.75
2023-03-21T16:43:52.245Z,100954.38
2023-03-21T16:46:38.538Z,100967.13
2023-03-21T16:49:26.692Z,100966.97
2023-03-21T16:52:13.247Z,100968.53
2023-03-21T16:54:59.097Z,100950.63
2023-03-21T16:57:45.511Z,100955.41
2023-03-21T17:00:32.618Z,100957.53
2023-03-21T17:03:19.489Z,100962.84
2023-03-21T17:06:06.063Z,100974.56
2023-03-21T17:08:52.361Z,100970.78
2023-03-21T17:11:41.434Z,100969.38
2023-03-21T17:14:27.370Z,100974.69
2023-03-21T17:17:15.632Z,100968.41
2023-03-21T17:20:01.784Z,100974.00
2023-03-21T17:22:48.130Z,100975.00
2023-03-21T17:25:33.903Z,100982.81
2023-03-21T17:28:19.885Z,100985.63
2023-03-21T17:31:07.506Z,100990.94
2023-03-21T17:33:55.291Z,101005.19
2023-03-21T17:36:42.075Z,101007.69
2023-03-21T17:39:28.772Z,101005.19
2023-03-21T17:42:18.067Z,100997.91
2023-03-21T17:45:04.026Z,100998.06
2023-03-21T17:47:50.373Z,100998.91
2023-03-21T17:50:39.300Z,100991.50
2023-03-21T17:53:26.615Z,100988.00
2023-03-21T17:56:14.002Z,100984.66
2023-03-21T17:59:01.165Z,100984.13
2023-03-21T18:01:47.346Z,100981.69
2023-03-21T18:04:33.290Z,100970.66
2023-03-21T18:07:38.102Z,100963.97
2023-03-21T18:10:27.072Z,100956.69
2023-03-21T18:13:12.960Z,100958.13
2023-03-21T18:15:59.807Z,100949.75
2023-03-21T18:18:46.559Z,100962.47
2023-03-21T18:21:33.095Z,100963.28
2023-03-21T18:24:20.625Z,100970.97
2023-03-21T18:27:07.079Z,100957.16
2023-03-21T18:30:25.706Z,100956.88
2023-03-21T18:33:00.352Z,100964.28
2023-03-21T18:35:46.996Z,100969.84
2023-03-21T18:38:33.177Z,100963.84
2023-03-21T18:41:22.594Z,100973.34
2023-03-21T18:44:17.512Z,100981.16
2023-03-21T18:47:09.261Z,100979.19
2023-03-21T18:50:14.464Z,100999.56
2023-03-21T18:53:01.303Z,100992.59
2023-03-21T18:55:49.444Z,101000.56
2023-03-21T18:58:38.511Z,101003.06
2023-03-21T19:01:24.465Z,101002.13
2023-03-21T19:04:23.122Z,101000.41
2023-03-21T19:07:11.458Z,100995.09
2023-03-21T19:10:16.469Z,101002.94
2023-03-21T19:13:04.389Z,101006.44
2023-03-21T19:15:52.825Z,101009.09
2023-03-21T19:18:53.834Z,101004.75
2023-03-21T19:21:40.746Z,100999.47
2023-03-21T19:24:29.241Z,101005.72
2023-03-21T19:27:15.640Z,101005.59
2023-03-21T19:30:13.994Z,101000.41
2023-03-21T19:33:03.133Z,100994.41
2023-03-21T19:35:50.217Z,100995.09
2023-03-21T19:38:36.795Z,100997.34
2023-03-21T19:41:22.952Z,100993.00
2023-03-21T19:44:08.888Z,100983.38
2023-03-21T19:46:54.678Z,100993.16
2023-03-21T19:50:32.959Z,100987.00
2023-03-21T19:52:47.913Z,100981.69
2023-03-21T19:55:34.006Z,100988.97
2023-03-21T19:58:22.697Z,100979.47
2023-03-21T20:01:09.146Z,100973.31
2023-03-21T20:03:55.496Z,100961.44
2023-03-21T20:06:42.557Z,100952.09
2023-03-21T20:09:50.907Z,100956.81
2023-03-21T20:12:36.153Z,100955.72
2023-03-21T20:15:24.904Z,100944.66
2023-03-21T20:18:12.728Z,100945.63
2023-03-21T20:20:58.593Z,100940.59
2023-03-21T20:23:49.236Z,100939.91
2023-03-21T20:26:35.967Z,100943.34
2023-03-21T20:30:07.561Z,100942.22
2023-03-21T20:32:28.096Z,100945.16
2023-03-21T20:35:21.153Z,100946.69
2023-03-21T20:38:13.562Z,100952.22
2023-03-21T20:41:01.490Z,100952.22
2023-03-21T20:46:53.543Z,100942.72
2023-03-21T20:49:40.229Z,100951.34
2023-03-21T20:52:54.751Z,100946.06
2023-03-21T20:55:33.340Z,100937.84
2023-03-21T20:58:50.777Z,100941.75
2023-03-21T21:01:26.476Z,100941.19
2023-03-21T21:04:15.072Z,100943.00
2023-03-21T21:07:01.624Z,100935.63
2023-03-21T21:09:50.731Z,100935.47
2023-03-21T21:12:39.189Z,100934.66
2023-03-21T21:15:27.097Z,100925.28
2023-03-21T21:18:13.418Z,100925.88
2023-03-21T21:21:00.140Z,100917.34
2023-03-21T21:23:51.764Z,100921.66
2023-03-21T21:26:40.972Z,100926.56
2023-03-21T21:29:30.137Z,100921.97
2023-03-21T21:32:21.601Z,100915.97
2023-03-21T21:35:10.027Z,100908.16
2023-03-21T21:37:56.516Z,100906.47
2023-03-21T21:40:42.946Z,100902.28
2023-03-21T21:43:31.250Z,100905.91
2023-03-21T21:46:20.252Z,100897.84
2023-03-21T21:49:19.470Z,100904.53
2023-03-21T21:52:09.296Z,100906.06
2023-03-21T21:54:58.385Z,100907.34
2023-03-21T21:57:44.788Z,100901.78
2023-03-21T22:00:35.776Z,100900.53
2023-03-21T22:03:24.176Z,100897.03
2023-03-21T22:06:14.742Z,100898.56
2023-03-21T22:09:01.013Z,100889.50
2023-03-21T22:11:47.012Z,100869.44
2023-03-21T22:14:32.805Z,100863.16
2023-03-21T22:17:18.781Z,100857.84
2023-03-21T22:20:06.904Z,100851.72
2023-03-21T22:22:56.569Z,100846.84
2023-03-21T22:25:43.328Z,100842.94
2023-03-21T22:28:29.272Z,100849.34
2023-03-21T22:31:16.529Z,100846.09
2023-03-21T22:34:02.595Z,100849.72
2023-03-21T22:36:50.391Z,100854.75
2023-03-21T22:39:37.769Z,100855.03
2023-03-21T22:42:23.824Z,100845.69
2023-03-21T22:45:10.886Z,100845.22
2023-03-21T22:47:56.940Z,100845.34
2023-03-21T22:50:43.124Z,100838.66
2023-03-21T22:53:29.429Z,100840.63
2023-03-21T22:56:17.347Z,100840.88
2023-03-21T22:59:03.548Z,100847.28
2023-03-21T23:01:49.910Z,100850.47
2023-03-21T23:04:36.230Z,100850.59
2023-03-21T23:07:22.573Z,100854.34
2023-03-21T23:10:09.232Z,100853.88
2023-03-21T23:12:56.539Z,100850.28
2023-03-21T23:15:42.908Z,100859.88
2023-03-21T23:18:29.646Z,100870.25
2023-03-21T23:21:16.541Z,100864.81
2023-03-21T23:24:02.537Z,100873.84
2023-03-21T23:26:48.472Z,100863.38
2023-03-21T23:29:35.582Z,100865.91
2023-03-21T23:32:21.734Z,100862.53
2023-03-21T23:35:08.598Z,100862.09
2023-03-21T23:37:54.604Z,100861.63
2023-03-21T23:40:41.011Z,100860.22
2023-03-21T23:43:27.464Z,100862.03
2023-03-21T23:46:15.444Z,100867.59
2023-03-21T23:49:01.596Z,100869.41
2023-03-21T23:51:47.831Z,100861.88
2023-03-21T23:54:33.849Z,100863.69
2023-03-21T23:57:20.206Z,100862.25
